Time,TemperatureF,DewpointF,PressureIn,WindDirection,WindDirectionDegrees,WindSpeedMPH,WindSpeedGustMPH,Humidity,HourlyPrecipIn,Conditions,Clouds,dailyrainin,SoftwareType,DateUTC
2013-10-02 00:00:00,58.3,55.4,29.85,NNW,338,0.0,0.0,90,0.00,,---,0.00,VWS V14.01,2013-10-02 05:00:00,
2013-10-02 00:30:00,56.5,53.9,29.86,NNW,338,0.0,0.0,91,0.00,,---,0.00,VWS V14.01,2013-10-02 05:30:00,
2013-10-02 01:00:00,54.9,52.6,29.87,NNW,338,0.0,0.0,92,0.00,,---,0.00,VWS V14.01,2013-10-02 06:00:00,
2013-10-02 01:30:00,53.6,51.3,29.88,NNW,338,0.0,0.0,92,0.00,,---,0.00,VWS V14.01,2013-10-02 06:30:00,
2013-10-02 02:00:00,53.0,50.7,29.89,NNW,338,0.0,0.0,92,0.00,,---,0.00,VWS V14.01,2013-10-02 07:00:00,
2013-10-02 02:30:00,52.2,50.2,29.89,NNW,338,0.0,0.0,93,0.00,,---,0.00,VWS V14.01,2013-10-02 07:30:00,
2013-10-02 03:00:00,51.7,49.8,29.90,NNW,338,0.0,0.0,93,0.00,,---,0.00,VWS V14.01,2013-10-02 08:00:00,
2013-10-02 03:30:00,50.5,48.6,29.92,NNW,338,0.0,0.0,93,0.00,,---,0.00,VWS V14.01,2013-10-02 08:30:00,
2013-10-02 04:00:00,49.4,47.8,29.92,NNW,338,0.0,0.0,94,0.00,,---,0.00,VWS V14.01,2013-10-02 09:00:00,
2013-10-02 04:30:00,48.4,46.8,29.94,NNW,338,0.0,0.0,94,0.00,,---,0.00,VWS V14.01,2013-10-02 09:30:00,
2013-10-02 05:00:00,48.0,46.4,29.94,NNW,338,0.0,0.0,94,0.00,,---,0.00,VWS V14.01,2013-10-02 10:00:00,
2013-10-02 05:30:00,47.6,46.0,29.96,NNW,338,0.0,0.0,94,0.00,,---,0.00,VWS V14.01,2013-10-02 10:30:00,
2013-10-02 06:00:00,47.3,45.7,29.97,NNW,338,0.0,0.0,94,0.00,,---,0.00,VWS V14.01,2013-10-02 11:00:00,
2013-10-02 06:30:00,46.8,45.5,29.98,NNW,338,0.0,0.0,95,0.00,,---,0.00,VWS V14.01,2013-10-02 11:30:00,
2013-10-02 07:00:00,46.5,45.2,29.99,NNW,338,0.0,0.0,95,0.01,,---,0.01,VWS V14.01,2013-10-02 12:00:00,
2013-10-02 07:30:00,46.9,45.5,29.99,NNW,338,0.0,0.0,95,0.01,,---,0.01,VWS V14.01,2013-10-02 12:30:00,
2013-10-02 08:00:00,51.7,50.6,30.00,NNW,338,0.0,0.0,96,0.01,,---,0.01,VWS V14.01,2013-10-02 13:00:00,
2013-10-02 08:30:00,54.5,53.4,30.00,NNW,338,0.0,0.0,96,0.00,,---,0.01,VWS V14.01,2013-10-02 13:30:00,
2013-10-02 09:00:00,56.1,55.0,30.02,NNW,338,0.0,0.0,96,0.00,,---,0.01,VWS V14.01,2013-10-02 14:00:00,
2013-10-02 09:30:00,62.1,50.6,30.01,NNW,338,0.0,0.0,66,0.00,,---,0.01,VWS V14.01,2013-10-02 14:30:00,
2013-10-02 10:00:00,66.7,48.0,30.00,WNW,293,0.0,0.0,51,0.00,,---,0.01,VWS V14.01,2013-10-02 15:00:00,
2013-10-02 10:30:00,68.9,45.5,30.00,SE,133,0.0,0.0,43,0.00,,---,0.01,VWS V14.01,2013-10-02 15:30:00,
2013-10-02 11:00:00,71.2,39.9,29.99,WSW,238,0.0,6.0,32,0.00,,---,0.01,VWS V14.01,2013-10-02 16:00:00,
2013-10-02 11:30:00,72.5,40.2,29.99,WSW,252,0.0,4.0,31,0.00,,---,0.01,VWS V14.01,2013-10-02 16:30:00,
2013-10-02 12:00:00,73.8,36.8,29.99,ESE,102,0.0,9.0,26,0.00,,---,0.01,VWS V14.01,2013-10-02 17:00:00,
2013-10-02 12:30:00,73.4,39.2,29.97,South,188,0.0,3.0,29,0.00,,---,0.01,VWS V14.01,2013-10-02 17:30:00,
2013-10-02 13:00:00,73.9,38.8,29.96,SE,142,0.0,5.0,28,0.00,,---,0.01,VWS V14.01,2013-10-02 18:00:00,
2013-10-02 13:30:00,75.0,39.7,29.95,ESE,103,0.0,7.0,28,0.00,,---,0.01,VWS V14.01,2013-10-02 18:30:00,
2013-10-02 14:00:00,75.6,41.1,29.93,ENE,76,0.0,6.0,29,0.00,,---,0.01,VWS V14.01,2013-10-02 19:00:00,
2013-10-02 14:30:00,76.3,41.7,29.93,SE,127,4.0,6.0,29,0.00,,---,0.01,VWS V14.01,2013-10-02 19:30:00,
2013-10-02 15:00:00,76.1,42.5,29.93,WNW,287,0.0,5.0,30,0.00,,---,0.01,VWS V14.01,2013-10-02 20:00:00,
2013-10-02 15:30:00,74.3,44.9,29.93,ESE,122,0.0,10.0,35,0.00,,---,0.01,VWS V14.01,2013-10-02 20:30:00,
2013-10-02 16:00:00,73.3,46.9,29.92,ESE,123,0.0,10.0,39,0.00,,---,0.01,VWS V14.01,2013-10-02 21:00:00,
2013-10-02 16:30:00,71.6,44.7,29.91,SE,138,6.0,9.0,38,0.00,,---,0.01,VWS V14.01,2013-10-02 21:30:00,
2013-10-02 17:00:00,71.3,47.0,29.90,SE,132,2.0,11.0,42,0.00,,---,0.01,VWS V14.01,2013-10-02 22:00:00,
2013-10-02 17:30:00,69.4,48.9,29.92,SE,130,0.0,10.0,48,0.00,,---,0.01,VWS V14.01,2013-10-02 22:30:00,
2013-10-02 18:00:00,66.8,47.6,29.93,SE,126,0.0,8.0,50,0.00,,---,0.01,VWS V14.01,2013-10-02 23:00:00,
2013-10-02 18:30:00,63.9,48.4,29.93,SE,125,0.0,3.0,57,0.00,,---,0.01,VWS V14.01,2013-10-02 23:30:00,
2013-10-02 19:00:00,60.6,49.2,29.93,SE,125,0.0,0.0,66,0.00,,---,0.01,VWS V14.01,2013-10-03 00:00:00,
2013-10-02 19:30:00,59.3,50.3,29.93,SE,125,0.0,0.0,72,0.00,,---,0.01,VWS V14.01,2013-10-03 00:30:00,
2013-10-02 20:00:00,55.5,49.4,29.93,SE,125,0.0,0.0,80,0.00,,---,0.01,VWS V14.01,2013-10-03 01:00:00,
2013-10-02 20:30:00,54.1,49.7,29.92,SE,125,0.0,0.0,85,0.00,,---,0.01,VWS V14.01,2013-10-03 01:30:00,
2013-10-02 21:00:00,53.8,49.7,29.92,SE,125,0.0,0.0,86,0.00,,---,0.01,VWS V14.01,2013-10-03 02:00:00,
2013-10-02 21:30:00,54.1,50.6,29.92,SE,125,0.0,0.0,88,0.00,,---,0.01,VWS V14.01,2013-10-03 02:30:00,
2013-10-02 22:00:00,53.6,50.7,29.92,SE,125,0.0,0.0,90,0.00,,---,0.01,VWS V14.01,2013-10-03 03:00:00,
2013-10-02 22:30:00,52.9,50.0,29.91,SE,125,0.0,0.0,90,0.00,,---,0.01,VWS V14.01,2013-10-03 03:30:00,
2013-10-02 23:00:00,52.6,50.0,29.91,SE,125,0.0,0.0,91,0.00,,---,0.01,VWS V14.01,2013-10-03 04:00:00,
2013-10-02 23:30:00,52.4,49.8,29.89,SE,125,0.0,0.0,91,0.00,,---,0.01,VWS V14.01,2013-10-03 04:30:00,